createdAt,value
2023-10-11T00:01:33.658Z,100675.91
2023-10-11T00:04:04.939Z,100674.69
2023-10-11T00:06:34.539Z,100676.75
2023-10-11T00:09:03.376Z,100677.97
2023-10-11T00:11:34.573Z,100679.03
2023-10-11T00:14:03.087Z,100677.97
2023-10-11T00:16:32.955Z,100670.06
2023-10-11T00:19:01.544Z,100676.72
2023-10-11T00:21:41.907Z,100672.53
2023-10-11T00:24:10.788Z,100663.63
2023-10-11T00:26:42.445Z,100661.72
2023-10-11T00:29:12.606Z,100650.44
2023-10-11T00:31:41.077Z,100657.09
2023-10-11T00:34:12.171Z,100645.66
2023-10-11T00:36:44.145Z,100644.19
2023-10-11T00:39:18.037Z,100642.13
2023-10-11T00:41:50.601Z,100638.41
2023-10-11T00:44:21.510Z,100632.16
2023-10-11T00:47:01.027Z,100633.00
2023-10-11T00:49:37.857Z,100622.81
2023-10-11T00:52:08.051Z,100616.84
2023-10-11T00:54:38.718Z,100616.44
2023-10-11T00:57:08.951Z,100617.25
2023-10-11T00:59:39.399Z,100621.00
2023-10-11T01:02:09.753Z,100622.66
2023-10-11T01:04:40.270Z,100626.59
2023-10-11T01:07:09.481Z,100618.50
2023-10-11T01:09:38.953Z,100624.97
2023-10-11T01:12:09.107Z,100623.13
2023-10-11T01:14:58.108Z,100615.00
2023-10-11T01:17:27.616Z,100618.75
2023-10-11T01:19:56.287Z,100617.91
2023-10-11T01:22:27.668Z,100613.75
2023-10-11T01:24:59.498Z,100617.47
2023-10-11T01:27:31.390Z,100625.16
2023-10-11T01:30:00.134Z,100624.72
2023-10-11T01:32:28.652Z,100618.00
2023-10-11T01:34:57.117Z,100622.63
2023-10-11T01:37:27.521Z,100622.19
2023-10-11T01:39:55.998Z,100609.03
2023-10-11T01:42:24.409Z,100610.09
2023-10-11T01:44:52.906Z,100601.34
2023-10-11T01:47:21.363Z,100601.75
2023-10-11T01:49:53.938Z,100600.09
2023-10-11T01:52:22.613Z,100597.19
2023-10-11T01:54:52.452Z,100591.34
2023-10-11T01:57:21.073Z,100597.78
2023-10-11T01:59:49.595Z,100588.03
2023-10-11T02:02:18.093Z,100586.34
2023-10-11T02:04:48.562Z,100587.63
2023-10-11T02:07:16.989Z,100585.75
2023-10-11T02:09:45.456Z,100590.09
2023-10-11T02:12:18.893Z,100585.53
2023-10-11T02:14:47.678Z,100578.28
2023-10-11T02:17:19.532Z,100590.78
2023-10-11T02:19:48.081Z,100582.84
2023-10-11T02:22:20.035Z,100590.97
2023-10-11T02:24:48.647Z,100589.75
2023-10-11T02:27:19.413Z,100590.00
2023-10-11T02:29:49.469Z,100589.13
2023-10-11T02:32:18.106Z,100589.34
2023-10-11T02:34:50.640Z,100587.66
2023-10-11T02:39:52.876Z,100592.28
2023-10-11T02:42:22.721Z,100579.84
2023-10-11T02:44:51.171Z,100581.00
2023-10-11T02:47:23.750Z,100579.19
2023-10-11T02:49:54.442Z,100581.00
2023-10-11T02:52:30.657Z,100582.53
2023-10-11T02:55:01.063Z,100577.56
2023-10-11T02:57:31.196Z,100584.00
2023-10-11T02:59:59.797Z,100579.03
2023-10-11T03:02:31.331Z,100581.94
2023-10-11T03:05:02.422Z,100578.59
2023-10-11T03:07:34.391Z,100573.19
2023-10-11T03:10:04.370Z,100580.28
2023-10-11T03:12:39.584Z,100571.94
2023-10-11T03:15:10.217Z,100568.66
2023-10-11T03:17:43.125Z,100574.88
2023-10-11T03:20:31.785Z,100562.41
2023-10-11T03:23:01.356Z,100559.28
2023-10-11T03:25:32.045Z,100555.31
2023-10-11T03:28:03.203Z,100556.56
2023-10-11T03:30:36.405Z,100557.41
2023-10-11T03:33:08.105Z,100544.94
2023-10-11T03:35:39.385Z,100549.50
2023-10-11T03:38:18.228Z,100546.81
2023-10-11T03:41:15.957Z,100546.19
2023-10-11T03:43:46.870Z,100553.69
2023-10-11T03:46:16.548Z,100540.38
2023-10-11T03:48:52.758Z,100539.34
2023-10-11T03:51:21.846Z,100533.09
2023-10-11T03:53:53.274Z,100544.75
2023-10-11T03:56:21.777Z,100542.03
2023-10-11T03:58:52.337Z,100537.06
2023-10-11T04:01:28.695Z,100532.66
2023-10-11T04:03:57.914Z,100533.09
2023-10-11T04:06:26.471Z,100523.28
2023-10-11T04:09:02.073Z,100528.09
2023-10-11T04:11:39.052Z,100527.44
2023-10-11T04:14:18.450Z,100531.22
2023-10-11T04:16:47.613Z,100520.81
2023-10-11T04:19:16.495Z,100521.84
2023-10-11T04:21:56.591Z,100514.16
2023-10-11T04:24:25.419Z,100524.56
2023-10-11T04:26:59.560Z,100529.13
2023-10-11T04:29:33.069Z,100522.28
2023-10-11T04:32:15.982Z,100523.13
2023-10-11T04:34:50.022Z,100522.47
2023-10-11T04:37:29.035Z,100523.94
2023-10-11T04:40:18.637Z,100514.16
2023-10-11T04:43:05.734Z,100515.00
2023-10-11T04:45:55.713Z,100511.66
2023-10-11T04:48:34.891Z,100506.25
2023-10-11T04:51:22.783Z,100510.22
2023-10-11T04:53:58.026Z,100505.88
2023-10-11T04:56:51.012Z,100507.50
2023-10-11T04:59:27.087Z,100500.47
2023-10-11T05:02:09.767Z,100504.00
2023-10-11T05:04:45.568Z,100498.38
2023-10-11T05:07:15.417Z,100496.72
2023-10-11T05:09:53.852Z,100500.03
2023-10-11T05:12:23.244Z,100499.41
2023-10-11T05:15:05.244Z,100492.53
2023-10-11T05:17:41.170Z,100494.22
2023-10-11T05:20:24.753Z,100491.09
2023-10-11T05:23:03.627Z,100487.53
2023-10-11T05:25:54.756Z,100480.25
2023-10-11T05:28:29.251Z,100478.81
2023-10-11T05:31:20.925Z,100472.97
2023-10-11T05:34:13.614Z,100486.72
2023-10-11T05:36:49.840Z,100480.66
2023-10-11T05:39:36.015Z,100482.34
2023-10-11T05:42:22.181Z,100469.84
2023-10-11T05:45:08.408Z,100463.81
2023-10-11T05:47:54.581Z,100471.72
2023-10-11T05:50:43.303Z,100472.97
2023-10-11T05:53:15.248Z,100463.41
2023-10-11T05:55:43.882Z,100463.41
2023-10-11T05:58:14.328Z,100466.72
2023-10-11T06:00:43.089Z,100468.41
2023-10-11T06:03:12.756Z,100465.69
2023-10-11T06:05:42.937Z,100467.97
2023-10-11T06:08:16.929Z,100476.09
2023-10-11T06:10:45.690Z,100468.41
2023-10-11T06:13:15.617Z,100462.38
2023-10-11T06:16:00.046Z,100476.09
2023-10-11T06:18:40.838Z,100474.00
2023-10-11T06:21:25.580Z,100471.31
2023-10-11T06:23:55.068Z,100466.31
2023-10-11T06:26:49.853Z,100471.13
2023-10-11T06:29:19.351Z,100470.47
2023-10-11T06:31:47.045Z,100473.81
2023-10-11T06:34:23.659Z,100474.44
2023-10-11T06:36:55.049Z,100468.00
2023-10-11T06:39:56.486Z,100461.94
2023-10-11T06:42:25.376Z,100472.56
2023-10-11T06:44:58.850Z,100475.69
2023-10-11T06:47:28.851Z,100467.56
2023-10-11T06:49:58.150Z,100472.97
2023-10-11T06:52:32.228Z,100465.47
2023-10-11T06:55:15.506Z,100476.72
2023-10-11T06:57:47.095Z,100478.38
2023-10-11T07:00:24.605Z,100485.47
2023-10-11T07:02:55.188Z,100481.94
2023-10-11T07:05:27.013Z,100484.84
2023-10-11T07:07:59.711Z,100475.50
2023-10-11T07:10:32.809Z,100474.22
2023-10-11T07:13:08.989Z,100484.03
2023-10-11T07:15:42.528Z,100473.41
2023-10-11T07:18:12.772Z,100472.97
2023-10-11T07:21:06.994Z,100475.88
2023-10-11T07:23:47.418Z,100470.69
2023-10-11T07:26:45.322Z,100469.66
2023-10-11T07:29:14.180Z,100487.97
2023-10-11T07:31:50.898Z,100489.22
2023-10-11T07:34:22.227Z,100501.28
2023-10-11T07:36:51.369Z,100509.59
2023-10-11T07:39:27.199Z,100514.41
2023-10-11T07:42:05.063Z,100509.19
2023-10-11T07:44:37.813Z,100522.09
2023-10-11T07:47:08.490Z,100520.00
2023-10-11T07:49:43.198Z,100509.19
2023-10-11T07:52:15.305Z,100508.34
2023-10-11T07:54:45.093Z,100514.59
2023-10-11T07:57:14.549Z,100515.84
2023-10-11T07:59:44.064Z,100517.50
2023-10-11T08:02:27.586Z,100505.00
2023-10-11T08:05:00.419Z,100496.22
2023-10-11T08:07:28.852Z,100507.91
2023-10-11T08:09:58.662Z,100512.47
2023-10-11T08:12:28.305Z,100509.94
2023-10-11T08:14:58.676Z,100503.28
2023-10-11T08:17:31.496Z,100503.28
2023-10-11T08:20:01.178Z,100493.28
2023-10-11T08:22:30.118Z,100498.06
2023-10-11T08:25:01.735Z,100489.06
2023-10-11T08:27:30.979Z,100483.44
2023-10-11T08:30:10.483Z,100488.41
2023-10-11T08:32:43.991Z,100490.22
2023-10-11T08:35:17.251Z,100488.53
2023-10-11T08:37:47.112Z,100486.81
2023-10-11T08:40:24.150Z,100480.78
2023-10-11T08:42:54.240Z,100481.78
2023-10-11T08:45:30.342Z,100482.78
2023-10-11T08:47:59.842Z,100484.25
2023-10-11T08:50:35.640Z,100483.75
2023-10-11T08:53:09.429Z,100475.38
2023-10-11T08:55:41.657Z,100481.59
2023-10-11T08:58:13.994Z,100487.66
2023-10-11T09:00:48.522Z,100489.91
2023-10-11T09:03:19.628Z,100487.66
2023-10-11T09:05:49.156Z,100502.44
2023-10-11T09:08:28.002Z,100502.78
2023-10-11T09:11:12.552Z,100508.09
2023-10-11T09:13:42.155Z,100507.41
2023-10-11T09:16:14.062Z,100503.16
2023-10-11T09:18:47.374Z,100498.81
2023-10-11T09:21:18.946Z,100502.56
2023-10-11T09:23:52.692Z,100498.56
2023-10-11T09:26:41.638Z,100484.94
2023-10-11T09:29:17.665Z,100486.16
2023-10-11T09:31:59.712Z,100478.41
2023-10-11T09:34:31.984Z,100489.84
2023-10-11T09:37:01.207Z,100486.03
2023-10-11T09:39:30.764Z,100478.13
2023-10-11T09:42:05.206Z,100475.59
2023-10-11T09:44:38.833Z,100477.63
2023-10-11T09:47:09.272Z,100488.88
2023-10-11T09:49:43.042Z,100476.34
2023-10-11T09:52:13.051Z,100479.31
2023-10-11T09:54:42.758Z,100476.72
2023-10-11T09:57:24.725Z,100466.91
2023-10-11T10:00:09.892Z,100467.53
2023-10-11T10:02:40.795Z,100466.69
2023-10-11T10:05:10.038Z,100483.00
2023-10-11T10:07:45.543Z,100482.16
2023-10-11T10:10:16.665Z,100470.84
2023-10-11T10:12:59.305Z,100474.97
2023-10-11T10:15:33.943Z,100476.13
2023-10-11T10:18:22.602Z,100467.69
2023-10-11T10:21:03.781Z,100464.69
2023-10-11T10:23:34.073Z,100467.06
2023-10-11T10:26:33.236Z,100467.34
2023-10-11T10:29:08.059Z,100474.00
2023-10-11T10:31:36.785Z,100460.31
2023-10-11T10:34:30.856Z,100465.19
2023-10-11T10:37:03.504Z,100459.38
2023-10-11T10:39:49.294Z,100465.66
2023-10-11T10:42:19.900Z,100468.75
2023-10-11T10:44:55.033Z,100461.53
2023-10-11T10:47:33.386Z,100458.50
2023-10-11T10:50:10.435Z,100454.47
2023-10-11T10:52:40.639Z,100457.94
2023-10-11T10:55:10.391Z,100457.81
2023-10-11T10:57:39.286Z,100465.09
2023-10-11T11:00:22.353Z,100468.38
2023-10-11T11:02:52.054Z,100469.84
2023-10-11T11:05:32.078Z,100466.75
2023-10-11T11:08:17.062Z,100465.00
2023-10-11T11:10:56.108Z,100461.94
2023-10-11T11:13:27.141Z,100463.84
2023-10-11T11:15:56.798Z,100455.44
2023-10-11T11:18:33.261Z,100452.13
2023-10-11T11:21:18.857Z,100451.53
2023-10-11T11:23:50.332Z,100455.78
2023-10-11T11:28:52.428Z,100465.28
2023-10-11T11:31:32.075Z,100466.09
2023-10-11T11:34:17.287Z,100465.03
2023-10-11T11:37:14.121Z,100448.34
2023-10-11T11:39:52.207Z,100452.47
2023-10-11T11:42:20.798Z,100462.78
2023-10-11T11:44:50.403Z,100458.50
2023-10-11T11:47:26.069Z,100456.22
2023-10-11T11:50:00.063Z,100464.16
2023-10-11T11:52:29.620Z,100477.53
2023-10-11T11:54:58.187Z,100475.75
2023-10-11T11:57:30.756Z,100471.28
2023-10-11T12:00:02.630Z,100476.81
2023-10-11T12:02:31.621Z,100465.19
2023-10-11T12:05:00.083Z,100464.81
2023-10-11T12:07:28.181Z,100458.41
2023-10-11T12:10:03.667Z,100454.94
2023-10-11T12:12:33.442Z,100462.88
2023-10-11T12:15:03.290Z,100464.16
2023-10-11T12:17:33.364Z,100469.63
2023-10-11T12:20:02.023Z,100464.25
2023-10-11T12:22:30.448Z,100475.25
2023-10-11T12:25:01.133Z,100470.31
2023-10-11T12:27:29.772Z,100470.19
2023-10-11T12:30:08.816Z,100477.50
2023-10-11T12:32:39.599Z,100465.59
2023-10-11T12:35:09.294Z,100475.38
2023-10-11T12:37:38.419Z,100480.25
2023-10-11T12:40:13.830Z,100464.94
2023-10-11T12:42:46.243Z,100472.91
2023-10-11T12:45:17.929Z,100476.41
2023-10-11T12:47:48.607Z,100473.47
2023-10-11T12:50:18.780Z,100462.19
2023-10-11T12:52:47.514Z,100449.63
2023-10-11T12:55:16.228Z,100454.97
2023-10-11T12:57:44.713Z,100453.22
2023-10-11T13:00:32.458Z,100447.50
2023-10-11T13:03:17.272Z,100446.28
2023-10-11T13:05:46.839Z,100451.47
2023-10-11T13:08:15.831Z,100441.72
2023-10-11T13:10:46.860Z,100440.16
2023-10-11T13:13:16.647Z,100446.91
2023-10-11T13:15:56.380Z,100437.31
2023-10-11T13:18:29.860Z,100430.72
2023-10-11T13:21:00.448Z,100438.31
2023-10-11T13:23:33.737Z,100424.19
2023-10-11T13:26:08.154Z,100414.25
2023-10-11T13:28:39.675Z,100410.53
2023-10-11T13:31:10.837Z,100397.28
2023-10-11T13:33:41.438Z,100377.13
2023-10-11T13:36:10.295Z,100373.34
2023-10-11T13:38:42.510Z,100391.53
2023-10-11T13:41:13.304Z,100384.44
2023-10-11T13:43:42.607Z,100385.66
2023-10-11T13:46:12.676Z,100380.13
2023-10-11T13:48:44.317Z,100377.63
2023-10-11T13:51:18.608Z,100391.38
2023-10-11T13:53:48.704Z,100394.84
2023-10-11T13:56:22.317Z,100425.91
2023-10-11T13:58:53.630Z,100427.78
2023-10-11T14:02:00.301Z,100435.47
2023-10-11T14:04:48.810Z,100417.34
2023-10-11T14:07:24.429Z,100415.81
2023-10-11T14:09:55.258Z,100426.47
2023-10-11T14:12:29.131Z,100434.09
2023-10-11T14:14:58.014Z,100416.50
2023-10-11T14:17:27.210Z,100421.84
2023-10-11T14:19:58.151Z,100416.19
2023-10-11T14:22:28.337Z,100429.75
2023-10-11T14:24:58.559Z,100418.22
2023-10-11T14:27:27.044Z,100420.94
2023-10-11T14:29:55.502Z,100418.25
2023-10-11T14:32:24.055Z,100428.41
2023-10-11T14:34:52.820Z,100427.06
2023-10-11T14:37:22.743Z,100425.38
2023-10-11T14:39:52.144Z,100413.47
2023-10-11T14:42:20.586Z,100414.38
2023-10-11T14:44:49.289Z,100420.84
2023-10-11T14:47:17.795Z,100421.09
2023-10-11T14:49:46.611Z,100415.22
2023-10-11T14:52:15.117Z,100423.31
2023-10-11T14:54:49.482Z,100422.19
2023-10-11T14:57:18.017Z,100414.03
2023-10-11T14:59:47.173Z,100423.16
2023-10-11T15:02:18.102Z,100418.91
2023-10-11T15:04:46.826Z,100419.97
2023-10-11T15:07:19.384Z,100421.63
2023-10-11T15:09:49.497Z,100422.88
2023-10-11T15:12:18.212Z,100420.50
2023-10-11T15:14:48.725Z,100414.78
2023-10-11T15:17:19.942Z,100404.72
2023-10-11T15:19:48.494Z,100410.19
2023-10-11T15:22:19.423Z,100406.41
2023-10-11T15:24:49.485Z,100405.69
2023-10-11T15:27:18.155Z,100395.84
2023-10-11T15:29:48.088Z,100396.00
2023-10-11T15:32:16.741Z,100400.03
2023-10-11T15:34:45.746Z,100402.75
2023-10-11T15:37:14.217Z,100398.13
2023-10-11T15:39:42.702Z,100400.41
2023-10-11T15:42:12.596Z,100398.25
2023-10-11T15:44:41.057Z,100390.53
2023-10-11T15:47:09.673Z,100397.34
2023-10-11T15:49:38.126Z,100400.28
2023-10-11T15:52:07.059Z,100397.34
2023-10-11T15:54:35.969Z,100408.06
2023-10-11T15:57:05.220Z,100403.22
2023-10-11T15:59:35.135Z,100401.44
2023-10-11T16:02:06.890Z,100400.38
2023-10-11T16:04:35.826Z,100395.63
2023-10-11T16:07:06.545Z,100395.16
2023-10-11T16:09:36.299Z,100394.31
2023-10-11T16:12:05.715Z,100403.31
2023-10-11T16:14:35.642Z,100400.94
2023-10-11T16:17:04.112Z,100394.34
2023-10-11T16:19:32.555Z,100394.78
2023-10-11T16:22:01.016Z,100392.06
2023-10-11T16:24:29.907Z,100395.72
2023-10-11T16:26:59.129Z,100394.44
2023-10-11T16:29:27.745Z,100403.41
2023-10-11T16:31:57.752Z,100395.25
2023-10-11T16:34:26.389Z,100391.81
2023-10-11T16:36:54.823Z,100396.28
2023-10-11T16:39:35.557Z,100398.88
2023-10-11T16:42:06.740Z,100398.28
2023-10-11T16:44:36.374Z,100398.72
2023-10-11T16:47:10.043Z,100401.22
2023-10-11T16:49:38.900Z,100397.09
2023-10-11T16:52:10.809Z,100391.75
2023-10-11T16:54:39.408Z,100391.91
2023-10-11T16:57:08.307Z,100391.81
2023-10-11T16:59:39.991Z,100384.72
2023-10-11T17:02:11.018Z,100385.66
2023-10-11T17:04:42.453Z,100380.53
2023-10-11T17:07:11.293Z,100382.22
2023-10-11T17:09:39.765Z,100386.66
2023-10-11T17:12:11.240Z,100375.56
2023-10-11T17:14:40.663Z,100397.03
2023-10-11T17:17:10.543Z,100396.66
2023-10-11T17:19:39.373Z,100396.88
2023-10-11T17:22:07.785Z,100395.47
2023-10-11T17:24:36.402Z,100405.38
2023-10-11T17:27:05.284Z,100404.75
2023-10-11T17:29:34.025Z,100405.06
2023-10-11T17:32:05.013Z,100408.00
2023-10-11T17:34:35.148Z,100410.19
2023-10-11T17:37:03.658Z,100407.78
2023-10-11T17:39:32.128Z,100411.56
2023-10-11T17:42:01.602Z,100410.72
2023-10-11T17:44:30.119Z,100397.00
2023-10-11T17:46:59.681Z,100401.22
2023-10-11T17:49:28.251Z,100392.69
2023-10-11T17:51:58.029Z,100394.63
2023-10-11T17:54:26.509Z,100385.59
2023-10-11T17:56:54.999Z,100381.03
2023-10-11T17:59:23.482Z,100389.34
2023-10-11T18:01:52.731Z,100374.34
2023-10-11T18:04:21.503Z,100374.72
2023-10-11T18:06:50.252Z,100369.31
2023-10-11T18:09:20.175Z,100374.78
2023-10-11T18:11:48.633Z,100365.97
2023-10-11T18:14:17.205Z,100371.84
2023-10-11T18:16:45.896Z,100361.91
2023-10-11T18:19:17.124Z,100370.94
2023-10-11T18:21:45.708Z,100364.50
2023-10-11T18:24:15.881Z,100349.59
2023-10-11T18:26:48.657Z,100339.31
2023-10-11T18:29:18.332Z,100344.06
2023-10-11T18:31:49.085Z,100344.38
2023-10-11T18:34:17.931Z,100338.94
2023-10-11T18:36:47.107Z,100336.75
2023-10-11T18:39:19.511Z,100331.34
2023-10-11T18:41:49.517Z,100328.22
2023-10-11T18:44:18.274Z,100325.53
2023-10-11T18:46:47.673Z,100320.34
2023-10-11T18:49:16.548Z,100316.34
2023-10-11T18:51:45.114Z,100329.53
2023-10-11T18:54:13.647Z,100338.16
2023-10-11T18:56:42.146Z,100340.88
2023-10-11T18:59:12.612Z,100340.25
2023-10-11T19:01:41.150Z,100334.25
2023-10-11T19:04:09.766Z,100345.53
2023-10-11T19:06:38.440Z,100350.59
2023-10-11T19:09:07.819Z,100345.88
2023-10-11T19:11:37.562Z,100356.22
2023-10-11T19:14:06.206Z,100354.16
2023-10-11T19:16:36.140Z,100353.75
2023-10-11T19:19:04.704Z,100352.84
2023-10-11T19:21:33.222Z,100350.56
2023-10-11T19:24:04.897Z,100345.13
2023-10-11T19:26:33.404Z,100334.72
2023-10-11T19:29:01.865Z,100335.34
2023-10-11T19:31:30.441Z,100336.59
2023-10-11T19:34:01.291Z,100327.72
2023-10-11T19:36:29.750Z,100330.97
2023-10-11T19:38:58.287Z,100326.38
2023-10-11T19:41:27.337Z,100329.56
2023-10-11T19:43:55.801Z,100314.66
2023-10-11T19:46:25.441Z,100325.53
2023-10-11T19:48:54.745Z,100329.28
2023-10-11T19:51:25.917Z,100331.38
2023-10-11T19:53:57.245Z,100322.03
2023-10-11T19:56:26.047Z,100321.59
2023-10-11T19:58:54.685Z,100328.25
2023-10-11T20:01:24.610Z,100316.91
2023-10-11T20:03:57.800Z,100309.78
2023-10-11T20:06:27.905Z,100315.63
2023-10-11T20:08:56.454Z,100305.69
2023-10-11T20:11:24.870Z,100304.56
2023-10-11T20:13:53.360Z,100307.59
2023-10-11T20:16:21.822Z,100314.91
2023-10-11T20:18:51.190Z,100311.16
2023-10-11T20:21:20.665Z,100315.28
2023-10-11T20:23:55.278Z,100323.06
2023-10-11T20:26:25.761Z,100331.19
2023-10-11T20:28:57.814Z,100328.72
2023-10-11T20:31:27.154Z,100327.72
2023-10-11T20:33:58.143Z,100317.50
2023-10-11T20:36:26.980Z,100310.84
2023-10-11T20:38:57.449Z,100308.19
2023-10-11T20:41:25.931Z,100316.06
2023-10-11T20:43:54.526Z,100324.41
2023-10-11T20:46:23.018Z,100332.75
2023-10-11T20:48:51.536Z,100322.16
2023-10-11T20:51:20.088Z,100323.34
2023-10-11T20:53:48.601Z,100323.16
2023-10-11T20:56:18.681Z,100326.28
2023-10-11T20:58:56.504Z,100318.81
2023-10-11T21:01:27.469Z,100307.53
2023-10-11T21:03:57.529Z,100304.44
2023-10-11T21:06:26.297Z,100300.09
2023-10-11T21:08:54.872Z,100287.16
2023-10-11T21:11:24.678Z,100281.31
2023-10-11T21:13:53.783Z,100287.75
2023-10-11T21:16:23.855Z,100294.69
2023-10-11T21:18:52.476Z,100276.31
2023-10-11T21:21:24.355Z,100274.66
2023-10-11T21:23:55.374Z,100271.50
2023-10-11T21:26:25.430Z,100279.59
2023-10-11T21:28:55.229Z,100281.00
2023-10-11T21:31:24.226Z,100282.00
2023-10-11T21:33:53.308Z,100274.03
2023-10-11T21:36:22.087Z,100270.63
2023-10-11T21:38:50.620Z,100279.13
2023-10-11T21:41:22.226Z,100281.38
2023-10-11T21:43:54.380Z,100279.22
2023-10-11T21:46:23.049Z,100285.03
2023-10-11T21:48:51.638Z,100294.38
2023-10-11T21:51:20.308Z,100288.50
2023-10-11T21:53:48.822Z,100284.00
2023-10-11T21:56:17.325Z,100285.09
2023-10-11T21:58:47.839Z,100279.03
2023-10-11T22:01:25.354Z,100269.75
2023-10-11T22:03:56.993Z,100278.06
2023-10-11T22:06:25.740Z,100272.66
2023-10-11T22:08:54.226Z,100271.34
2023-10-11T22:11:26.310Z,100262.69
2023-10-11T22:13:57.421Z,100266.47
2023-10-11T22:16:27.514Z,100266.00
2023-10-11T22:18:59.741Z,100259.28
2023-10-11T22:21:28.249Z,100264.50
2023-10-11T22:23:56.728Z,100261.78
2023-10-11T22:26:27.389Z,100256.06
2023-10-11T22:28:55.911Z,100251.25
2023-10-11T22:31:25.897Z,100256.81
2023-10-11T22:33:55.700Z,100259.97
2023-10-11T22:36:29.039Z,100273.53
2023-10-11T22:38:58.759Z,100285.88
2023-10-11T22:41:27.211Z,100289.22
2023-10-11T22:43:56.533Z,100280.03
2023-10-11T22:46:26.821Z,100267.53
2023-10-11T22:48:55.558Z,100268.75
2023-10-11T22:51:28.414Z,100272.50
2023-10-11T22:54:01.583Z,100270.84
2023-10-11T22:56:32.227Z,100274.63
2023-10-11T22:59:04.899Z,100264.19
2023-10-11T23:01:38.137Z,100275.28
2023-10-11T23:04:08.545Z,100281.09
2023-10-11T23:06:37.763Z,100286.06
2023-10-11T23:09:06.303Z,100273.78
2023-10-11T23:11:37.292Z,100268.44
2023-10-11T23:14:05.828Z,100275.34
2023-10-11T23:16:36.642Z,100273.94
2023-10-11T23:19:19.294Z,100270.22
2023-10-11T23:21:48.079Z,100277.97
2023-10-11T23:24:20.321Z,100275.28
2023-10-11T23:26:53.995Z,100271.97
2023-10-11T23:29:23.257Z,100275.13
2023-10-11T23:31:54.713Z,100268.63
2023-10-11T23:34:26.850Z,100277.41
2023-10-11T23:36:57.532Z,100280.69
2023-10-11T23:39:34.469Z,100289.06
2023-10-11T23:42:15.309Z,100289.50
2023-10-11T23:44:47.168Z,100290.78
2023-10-11T23:47:28.709Z,100280.38
2023-10-11T23:49:57.476Z,100291.22
2023-10-11T23:52:29.201Z,100288.72
2023-10-11T23:55:06.963Z,100290.63
2023-10-11T23:57:37.685Z,100282.66
